Time;durP1;ratioP1;P1;durP2;ratioP2;P2;SDS_P1;SDS_P2;PMS_P1;PMS_P2;Temp;Humidity;BMP_temperature;BMP_pressure;BME280_temperature;BME280_humidity;BME280_pressure;Samples;Min_cycle;Max_cycle;Signal;HPM_P1;HPM_P2
2021/11/15 00:01:55;;;;;;;33.20;25.23;;;;;;;11.69;59.93;102567.11;1736625;81;21034;-53
2021/11/15 00:04:22;;;;;;;31.45;24.07;;;;;;;11.68;60.03;102563.66;1735319;81;21006;-52
2021/11/15 00:06:48;;;;;;;31.95;23.30;;;;;;;11.67;60.13;102566.23;1707450;82;21075;-52
2021/11/15 00:09:15;;;;;;;30.23;23.02;;;;;;;11.65;60.24;102565.33;1701647;82;21527;-53
2021/11/15 00:11:43;;;;;;;30.57;24.07;;;;;;;11.64;60.35;102571.00;1699586;82;21038;-54
2021/11/15 00:14:10;;;;;;;30.75;23.67;;;;;;;11.63;60.37;102576.19;1679516;83;21606;-53
2021/11/15 00:16:37;;;;;;;29.18;22.87;;;;;;;11.62;60.40;102575.77;1627905;87;21051;-52
2021/11/15 00:19:05;;;;;;;35.05;24.75;;;;;;;11.59;60.31;102565.31;1638830;86;21102;-53
2021/11/15 00:21:31;;;;;;;26.75;22.07;;;;;;;11.57;60.34;102573.56;1636070;87;21064;-52
2021/11/15 00:23:59;;;;;;;30.95;23.83;;;;;;;11.55;60.36;102573.99;1639672;87;21068;-53
2021/11/15 00:26:25;;;;;;;32.08;23.87;;;;;;;11.53;60.52;102580.94;1623715;87;21051;-53
2021/11/15 00:28:52;;;;;;;30.75;22.62;;;;;;;11.53;60.55;102577.03;1638157;86;21100;-53
2021/11/15 00:31:22;;;;;;;28.47;23.12;;;;;;;11.53;60.58;102579.63;1637912;86;21620;-56
2021/11/15 00:33:52;;;;;;;32.13;23.75;;;;;;;11.52;60.51;102584.43;1640954;85;21504;-52
2021/11/15 00:36:19;;;;;;;30.62;23.75;;;;;;;11.49;60.44;102583.98;1641006;85;21096;-53
2021/11/15 00:38:46;;;;;;;33.08;24.57;;;;;;;11.46;60.51;102592.66;1640902;85;21068;-53
2021/11/15 00:41:13;;;;;;;32.95;23.18;;;;;;;11.43;60.50;102587.45;1642092;85;21120;-53
2021/11/15 00:43:39;;;;;;;32.60;23.57;;;;;;;11.43;60.43;102584.84;1626632;86;22215;-52
2021/11/15 00:46:06;;;;;;;32.03;23.32;;;;;;;11.41;60.42;102583.08;1726085;81;21062;-53
2021/11/15 00:48:32;;;;;;;30.25;23.15;;;;;;;11.41;60.26;102583.96;1731845;82;21023;-52
2021/11/15 00:50:59;;;;;;;29.82;22.93;;;;;;;11.39;60.30;102579.17;1735384;81;20976;-53
2021/11/15 00:53:28;;;;;;;28.38;22.45;;;;;;;11.40;60.32;102584.81;1732776;81;21046;-52
2021/11/15 00:55:56;;;;;;;27.55;21.82;;;;;;;11.42;60.36;102576.98;1731554;81;20999;-53
2021/11/15 00:58:22;;;;;;;29.82;22.60;;;;;;;11.43;60.18;102577.02;1731705;81;21088;-53
2021/11/15 01:00:49;;;;;;;27.42;21.35;;;;;;;11.44;60.15;102578.74;1730795;81;21002;-53
2021/11/15 01:03:16;;;;;;;28.42;21.25;;;;;;;11.44;60.03;102581.34;1731868;81;21034;-50
2021/11/15 01:05:48;;;;;;;27.87;22.37;;;;;;;11.43;60.07;102576.14;1734276;81;21023;-52
2021/11/15 01:08:12;;;;;;;29.52;21.68;;;;;;;11.44;59.96;102572.65;1730304;81;21007;-53
2021/11/15 01:10:39;;;;;;;30.15;20.37;;;;;;;11.44;59.75;102570.05;1731712;82;20983;-52
2021/11/15 01:13:05;;;;;;;26.73;20.70;;;;;;;11.41;59.74;102570.93;1734837;81;21003;-52
2021/11/15 01:15:32;;;;;;;28.00;21.07;;;;;;;11.39;59.68;102571.78;1735252;81;21499;-53
2021/11/15 01:17:59;;;;;;;28.42;21.37;;;;;;;11.37;59.55;102566.53;1731466;81;21483;-52
2021/11/15 01:20:31;;;;;;;27.55;22.02;;;;;;;11.35;59.48;102573.48;1731841;81;21535;-53
2021/11/15 01:22:57;;;;;;;;;;;;;;;11.31;59.36;102569.13;1731126;81;21514;-52
2021/11/15 01:25:24;;;;;;;26.87;21.75;;;;;;;11.26;59.38;102564.34;1731434;81;20100;-53
2021/11/15 01:27:50;;;;;;;30.55;21.85;;;;;;;11.22;59.42;102570.41;1733963;81;21060;-53
2021/11/15 01:30:17;;;;;;;27.50;20.05;;;;;;;11.17;59.37;102568.20;1736333;81;21070;-52
2021/11/15 01:32:44;;;;;;;27.30;21.05;;;;;;;11.13;59.48;102565.56;1734655;81;21523;-53
2021/11/15 01:35:10;;;;;;;30.72;21.00;;;;;;;11.09;59.62;102576.41;1731812;81;21562;-53
2021/11/15 01:37:39;;;;;;;26.55;20.50;;;;;;;11.08;59.75;102583.81;1733758;82;21559;-53
2021/11/15 01:40:08;;;;;;;28.55;21.68;;;;;;;11.06;59.88;102579.02;1729854;82;21059;-53
2021/11/15 01:42:35;;;;;;;28.12;21.37;;;;;;;11.05;59.84;102586.80;1736776;81;21468;-53
2021/11/15 01:45:04;;;;;;;27.62;20.72;;;;;;;11.02;59.79;102591.59;1733354;81;21020;-54
2021/11/15 01:47:31;;;;;;;25.35;20.85;;;;;;;11.00;59.92;102597.22;1731948;81;20983;-52
2021/11/15 01:49:57;;;;;;;24.30;19.40;;;;;;;10.98;59.91;102595.05;1715223;81;21003;-52
2021/11/15 01:52:24;;;;;;;29.85;20.92;;;;;;;10.97;59.92;102586.77;1732519;81;21018;-52
2021/11/15 01:54:51;;;;;;;26.23;20.88;;;;;;;10.98;59.97;102594.16;1734523;81;21503;-53
2021/11/15 01:57:19;;;;;;;27.77;20.85;;;;;;;11.00;60.04;102595.92;1735224;81;20982;-53
2021/11/15 01:59:47;;;;;;;26.55;20.70;;;;;;;10.99;60.01;102599.37;1732432;81;22547;-53
2021/11/15 02:02:13;;;;;;;26.80;20.20;;;;;;;10.99;60.05;102594.16;1732852;81;21078;-53
2021/11/15 02:04:40;;;;;;;26.37;19.77;;;;;;;11.00;60.22;102589.84;1734375;82;21007;-53
2021/11/15 02:07:07;;;;;;;26.45;20.25;;;;;;;11.01;60.17;102591.56;1734493;81;21039;-52
2021/11/15 02:09:34;;;;;;;24.87;19.95;;;;;;;11.01;60.16;102595.05;1726217;81;21027;-52
2021/11/15 02:12:00;;;;;;;23.98;18.98;;;;;;;11.04;60.17;102601.59;1732863;81;21054;-53
2021/11/15 02:14:27;;;;;;;27.60;19.87;;;;;;;11.06;60.09;102600.28;1728625;81;21066;-53
2021/11/15 02:16:54;;;;;;;25.40;20.68;;;;;;;11.08;60.12;102603.77;1733707;81;21015;-52
2021/11/15 02:19:23;;;;;;;24.18;18.70;;;;;;;11.11;60.16;102604.64;1731026;81;21550;-56
2021/11/15 02:21:49;;;;;;;26.12;19.48;;;;;;;11.12;60.11;102606.41;1732391;81;21011;-53
2021/11/15 02:24:17;;;;;;;27.82;19.02;;;;;;;11.11;60.20;102615.06;1730470;81;21027;-51
2021/11/15 02:26:43;;;;;;;21.17;17.60;;;;;;;11.11;60.09;102614.19;1731035;81;20999;-53
2021/11/15 02:29:09;;;;;;;25.35;19.35;;;;;;;11.09;60.04;102621.12;1731429;81;20998;-51
2021/11/15 02:31:37;;;;;;;24.92;18.80;;;;;;;11.06;60.08;102623.31;1734339;81;21074;-52
2021/11/15 02:34:03;;;;;;;25.55;19.12;;;;;;;11.05;60.12;102620.25;1734217;81;20936;-54
2021/11/15 02:36:31;;;;;;;25.30;18.30;;;;;;;11.04;59.93;102621.12;1733160;81;21665;-52
2021/11/15 02:38:58;;;;;;;22.90;17.80;;;;;;;11.02;59.79;102622.85;1733093;81;21537;-53
2021/11/15 02:41:25;;;;;;;25.00;18.57;;;;;;;11.02;59.74;102620.25;1733827;82;21499;-53
2021/11/15 02:43:52;;;;;;;22.55;17.17;;;;;;;11.00;59.80;102615.45;1719989;81;21035;-52
2021/11/15 02:46:18;;;;;;;22.73;19.35;;;;;;;11.00;59.87;102619.36;1732437;81;21455;-53
2021/11/15 02:48:45;;;;;;;23.95;17.57;;;;;;;11.01;59.89;102621.09;1735067;82;21511;-53
2021/11/15 02:51:11;;;;;;;23.10;18.27;;;;;;;11.03;59.84;102625.00;1734879;81;21490;-50
2021/11/15 02:53:38;;;;;;;21.30;17.05;;;;;;;11.03;59.76;102627.19;1736700;81;21510;-53
2021/11/15 02:56:06;;;;;;;23.87;18.25;;;;;;;11.03;59.64;102629.78;1733532;81;21023;-53
2021/11/15 02:58:33;;;;;;;23.80;17.98;;;;;;;11.02;59.67;102629.36;1732186;81;20982;-52
2021/11/15 03:01:07;;;;;;;22.52;17.37;;;;;;;11.04;59.56;102631.55;1731794;81;21019;-53
2021/11/15 03:03:34;;;;;;;24.57;17.40;;;;;;;11.04;59.50;102632.85;1709093;83;21104;-54
2021/11/15 03:06:00;;;;;;;22.00;16.25;;;;;;;11.07;59.48;102638.06;1702957;83;21029;-55
2021/11/15 03:08:27;;;;;;;21.85;16.25;;;;;;;11.07;59.43;102639.36;1698571;83;21085;-52
2021/11/15 03:10:58;;;;;;;22.02;17.17;;;;;;;11.08;59.33;102638.52;1698835;83;20997;-53
2021/11/15 03:13:28;;;;;;;23.63;16.93;;;;;;;11.08;59.22;102638.52;1684228;84;21109;-54
2021/11/15 03:15:54;;;;;;;21.75;15.95;;;;;;;11.07;59.01;102644.58;1683757;85;21025;-52
2021/11/15 03:18:30;;;;;;;21.85;16.45;;;;;;;11.05;58.96;102646.30;1695245;83;21033;-50
2021/11/15 03:21:07;;;;;;;20.57;16.65;;;;;;;11.04;59.00;102644.57;1688505;84;21081;-52
2021/11/15 03:23:36;;;;;;;24.43;17.10;;;;;;;11.01;58.98;102647.14;1684311;84;21490;-53
2021/11/15 03:26:03;;;;;;;23.73;16.93;;;;;;;10.98;59.09;102646.26;1683638;84;21038;-54
2021/11/15 03:28:34;;;;;;;19.82;16.15;;;;;;;10.99;59.15;102640.17;1683569;84;21526;-52
2021/11/15 03:31:08;;;;;;;19.90;16.43;;;;;;;10.97;59.13;102642.78;1683691;84;21042;-52
2021/11/15 03:33:37;;;;;;;23.20;16.45;;;;;;;10.96;59.15;102645.38;1677167;84;21047;-53
2021/11/15 03:36:05;;;;;;;26.73;16.70;;;;;;;10.94;59.15;102642.73;1677109;84;21022;-53
2021/11/15 03:38:32;;;;;;;23.00;16.32;;;;;;;10.91;59.22;102645.34;1677345;84;21007;-53
2021/11/15 03:40:59;;;;;;;21.87;16.05;;;;;;;10.91;59.35;102644.46;1677135;85;21059;-52
2021/11/15 03:43:25;;;;;;;23.95;16.52;;;;;;;10.90;59.26;102643.58;1677387;84;21014;-52
2021/11/15 03:45:52;;;;;;;19.07;15.05;;;;;;;10.91;59.28;102641.44;1677022;84;21039;-52
2021/11/15 03:48:20;;;;;;;23.70;15.70;;;;;;;10.92;59.24;102644.46;1677222;84;21019;-53
2021/11/15 03:50:47;;;;;;;19.40;14.70;;;;;;;10.92;59.12;102652.28;1677194;84;21516;-52
2021/11/15 03:53:14;;;;;;;20.70;15.18;;;;;;;10.91;59.07;102640.13;1677296;84;21523;-53
2021/11/15 03:55:41;;;;;;;21.50;15.72;;;;;;;10.90;58.95;102646.19;1677022;84;21043;-50
2021/11/15 03:58:08;;;;;;;23.05;14.53;;;;;;;10.91;58.92;102646.64;1677333;84;21030;-53
2021/11/15 04:00:39;;;;;;;23.83;17.35;;;;;;;10.91;58.82;102650.55;1682853;84;21017;-53
2021/11/15 04:03:10;;;;;;;20.37;14.58;;;;;;;10.89;58.75;102650.09;1687378;83;20997;-53
2021/11/15 04:05:38;;;;;;;20.17;14.93;;;;;;;10.90;58.76;102644.88;1689859;84;21034;-52
2021/11/15 04:08:06;;;;;;;21.20;15.38;;;;;;;10.89;58.62;102646.19;1683607;84;21469;-52
2021/11/15 04:10:41;;;;;;;22.02;15.45;;;;;;;10.86;58.54;102650.09;1689914;84;21521;-53
2021/11/15 04:13:18;;;;;;;24.43;16.82;;;;;;;10.84;58.36;102652.66;1648731;86;21086;-55
2021/11/15 04:15:46;;;;;;;24.47;16.77;;;;;;;10.80;58.35;102645.69;1648233;86;21605;-52
2021/11/15 04:18:14;;;;;;;24.27;15.48;;;;;;;10.75;57.90;102648.70;1634452;86;21104;-52
2021/11/15 04:20:41;;;;;;;27.67;17.00;;;;;;;10.73;57.94;102653.03;1644105;86;21059;-53
2021/11/15 04:23:08;;;;;;;20.88;14.93;;;;;;;10.75;57.74;102653.91;1647482;87;21055;-52
2021/11/15 04:25:35;;;;;;;20.85;15.60;;;;;;;10.75;57.69;102655.63;1647279;86;21111;-52
2021/11/15 04:28:02;;;;;;;20.95;15.45;;;;;;;10.70;57.67;102660.80;1647133;86;21047;-53
2021/11/15 04:30:31;;;;;;;20.35;15.08;;;;;;;10.68;57.83;102669.03;1668813;83;21021;-50
2021/11/15 04:33:01;;;;;;;21.02;14.65;;;;;;;10.66;57.82;102664.23;1689779;84;21479;-53
2021/11/15 04:35:28;;;;;;;19.65;14.95;;;;;;;10.62;57.88;102662.47;1689517;84;21570;-52
2021/11/15 04:37:55;;;;;;;23.27;14.18;;;;;;;10.60;58.06;102661.59;1689869;85;21507;-53
2021/11/15 04:40:22;;;;;;;21.25;14.07;;;;;;;10.58;58.24;102663.30;1689478;84;21542;-52
2021/11/15 04:42:49;;;;;;;18.92;14.70;;;;;;;10.58;58.19;102666.79;1689528;84;21058;-53
2021/11/15 04:45:15;;;;;;;21.73;15.05;;;;;;;10.60;58.17;102670.28;1689860;83;20991;-52
2021/11/15 04:47:42;;;;;;;22.30;14.83;;;;;;;10.60;57.72;102662.89;1689943;83;21006;-52
2021/11/15 04:50:10;;;;;;;17.65;14.00;;;;;;;10.55;57.79;102673.70;1689795;83;21059;-53
2021/11/15 04:52:39;;;;;;;19.02;14.03;;;;;;;10.50;57.79;102667.16;1689652;84;21039;-52
2021/11/15 04:55:08;;;;;;;22.30;14.75;;;;;;;10.47;57.74;102681.42;1684045;84;21116;-52
2021/11/15 04:57:34;;;;;;;20.95;14.93;;;;;;;10.40;57.92;102683.97;1689880;84;21460;-53
2021/11/15 05:00:04;;;;;;;24.65;15.13;;;;;;;10.36;58.14;102679.59;1688404;85;21010;-53
2021/11/15 05:02:31;;;;;;;20.23;14.43;;;;;;;10.35;58.16;102690.84;1689574;84;21054;-53
2021/11/15 05:04:58;;;;;;;20.62;14.75;;;;;;;10.33;58.25;102693.86;1689684;83;21030;-52
2021/11/15 05:07:24;;;;;;;26.30;14.98;;;;;;;10.31;58.40;102692.97;1689421;84;21118;-53
2021/11/15 05:09:51;;;;;;;22.58;15.10;;;;;;;10.31;58.35;102699.48;1698793;83;21029;-52
2021/11/15 05:12:19;;;;;;;32.73;17.67;;;;;;;10.31;58.39;102704.69;1698079;82;21087;-52
2021/11/15 05:14:46;;;;;;;20.77;15.00;;;;;;;10.31;58.42;102712.48;1700369;82;21056;-57
2021/11/15 05:17:12;;;;;;;27.20;16.25;;;;;;;10.34;58.35;102709.94;1704650;84;20966;-52
2021/11/15 05:19:39;;;;;;;20.77;14.65;;;;;;;10.33;58.25;102712.08;1737715;81;21074;-51
2021/11/15 05:22:06;;;;;;;19.65;14.30;;;;;;;10.31;58.38;102716.39;1723893;81;21050;-53
2021/11/15 05:24:32;;;;;;;24.02;16.10;;;;;;;10.34;58.38;102728.15;1730993;81;21053;-53
2021/11/15 05:26:58;;;;;;;20.90;15.55;;;;;;;10.33;58.30;102727.69;1721779;81;20999;-52
2021/11/15 05:29:25;;;;;;;20.80;14.75;;;;;;;10.32;58.21;102728.56;1734626;81;20991;-52
2021/11/15 05:31:53;;;;;;;21.87;15.32;;;;;;;10.31;58.19;102738.09;1734250;81;21102;-52
2021/11/15 05:34:19;;;;;;;21.97;14.85;;;;;;;10.31;58.23;102738.51;1731630;81;21059;-52
2021/11/15 05:36:46;;;;;;;18.80;14.00;;;;;;;10.31;58.18;102752.82;1736961;80;21031;-53
2021/11/15 05:39:12;;;;;;;22.32;15.10;;;;;;;10.30;58.21;102750.67;1734548;82;21039;-52
2021/11/15 05:41:39;;;;;;;22.25;14.87;;;;;;;10.32;58.10;102753.28;1734586;81;21079;-52
2021/11/15 05:44:05;;;;;;;22.48;14.63;;;;;;;10.34;58.11;102755.47;1733353;81;20979;-54
2021/11/15 05:46:32;;;;;;;25.37;14.18;;;;;;;10.34;57.89;102755.05;1724183;81;21027;-52
2021/11/15 05:48:59;;;;;;;24.50;15.00;;;;;;;10.33;57.88;102758.91;1728103;82;21078;-52
2021/11/15 05:51:25;;;;;;;18.30;14.58;;;;;;;10.28;57.77;102768.42;1728847;81;21003;-52
2021/11/15 05:53:51;;;;;;;18.35;13.62;;;;;;;10.27;57.81;102780.55;1731273;81;20979;-50
2021/11/15 05:56:18;;;;;;;18.95;14.03;;;;;;;10.29;57.71;102785.34;1731499;81;21003;-52
2021/11/15 05:58:45;;;;;;;19.77;13.98;;;;;;;10.28;57.63;102796.58;1732647;81;21031;-52
2021/11/15 06:01:11;;;;;;;22.93;14.18;;;;;;;10.28;57.64;102798.34;1734942;81;21458;-52
2021/11/15 06:03:37;;;;;;;19.07;13.98;;;;;;;10.30;57.49;102804.44;1734374;81;21010;-52
2021/11/15 06:06:04;;;;;;;22.77;14.38;;;;;;;10.34;57.37;102802.31;1732148;81;21500;-53
2021/11/15 06:08:30;;;;;;;20.08;13.43;;;;;;;10.39;57.10;102809.73;1733864;81;21562;-53
2021/11/15 06:10:59;;;;;;;23.80;13.62;;;;;;;10.46;56.68;102809.84;1734877;82;21523;-52
2021/11/15 06:13:26;;;;;;;18.35;13.38;;;;;;;10.51;56.29;102804.66;1734924;81;21047;-52
2021/11/15 06:15:52;;;;;;;19.57;13.95;;;;;;;10.57;56.16;102808.66;1734104;81;20960;-52
2021/11/15 06:18:20;;;;;;;20.05;13.43;;;;;;;10.67;55.89;102809.20;1731534;81;21534;-52
2021/11/15 06:20:47;;;;;;;18.23;13.22;;;;;;;10.71;55.52;102810.97;1731961;81;21528;-52
2021/11/15 06:23:14;;;;;;;21.55;15.50;;;;;;;10.74;55.20;102820.09;1731983;81;21515;-51
2021/11/15 06:25:41;;;;;;;18.37;13.25;;;;;;;10.68;54.97;102823.94;1731379;81;21483;-50
2021/11/15 06:28:07;;;;;;;18.73;12.85;;;;;;;10.61;54.90;102823.45;1732441;81;21042;-52
2021/11/15 06:30:34;;;;;;;19.85;13.72;;;;;;;10.54;54.95;102825.53;1734608;81;21004;-51
2021/11/15 06:33:00;;;;;;;18.73;13.62;;;;;;;10.48;55.14;102822.86;1730270;82;20995;-51
2021/11/15 06:35:29;;;;;;;15.85;12.65;;;;;;;10.44;55.03;102834.09;1724706;81;21034;-52
2021/11/15 06:37:57;;;;;;;21.20;13.50;;;;;;;10.40;55.04;102836.21;1731807;81;21530;-52
2021/11/15 06:40:24;;;;;;;20.57;14.33;;;;;;;10.35;55.17;102841.77;1733712;81;21050;-52
2021/11/15 06:42:50;;;;;;;19.55;14.93;;;;;;;10.28;55.32;102833.47;1734987;81;21045;-51
2021/11/15 06:45:18;;;;;;;25.75;14.28;;;;;;;10.24;55.51;102836.88;1730301;82;21015;-52
2021/11/15 06:47:44;;;;;;;22.13;14.75;;;;;;;10.25;55.77;102838.62;1734370;81;21046;-52
2021/11/15 06:50:14;;;;;;;23.75;15.03;;;;;;;10.27;55.85;102842.11;1731398;81;21041;-53
2021/11/15 06:52:40;;;;;;;17.80;12.88;;;;;;;10.29;55.90;102845.60;1731565;81;20963;-50
2021/11/15 06:55:09;;;;;;;20.60;13.93;;;;;;;10.33;55.79;102840.88;1731620;81;21046;-51
2021/11/15 06:57:37;;;;;;;23.42;14.60;;;;;;;10.36;55.61;102846.14;1730806;81;21039;-52
2021/11/15 07:00:06;;;;;;;19.57;13.13;;;;;;;10.33;55.38;102835.67;1731918;81;21081;-52
2021/11/15 07:02:32;;;;;;;20.97;15.28;;;;;;;10.33;55.49;102846.09;1746871;82;21046;-51
2021/11/15 07:04:59;;;;;;;24.27;16.23;;;;;;;10.32;55.66;102850.86;1738082;81;21032;-52
2021/11/15 07:07:25;;;;;;;17.95;14.00;;;;;;;10.36;55.72;102849.63;1731666;81;20987;-52
2021/11/15 07:09:52;;;;;;;21.93;14.55;;;;;;;10.41;55.68;102852.25;1731723;81;21058;-52
2021/11/15 07:12:19;;;;;;;24.47;14.65;;;;;;;10.42;55.70;102856.20;1731975;81;21043;-52
2021/11/15 07:14:46;;;;;;;21.73;14.68;;;;;;;10.44;55.63;102858.81;1731109;81;21469;-52
2021/11/15 07:17:12;;;;;;;19.77;14.80;;;;;;;10.45;55.64;102852.73;1740426;81;21515;-51
2021/11/15 07:19:39;;;;;;;21.12;14.55;;;;;;;10.47;55.70;102851.91;1734947;81;21567;-52
2021/11/15 07:22:05;;;;;;;21.90;15.48;;;;;;;10.53;55.77;102862.84;1733009;81;20986;-52
2021/11/15 07:24:32;;;;;;;25.40;16.50;;;;;;;10.61;55.76;102870.31;1732579;81;21003;-55
2021/11/15 07:26:58;;;;;;;25.92;17.15;;;;;;;10.65;55.58;102870.80;1734085;82;20963;-56
2021/11/15 07:29:24;;;;;;;21.37;15.65;;;;;;;10.68;55.67;102867.32;1733797;81;21026;-52
2021/11/15 07:31:51;;;;;;;21.77;15.20;;;;;;;10.70;55.93;102867.80;1734249;81;20967;-52
2021/11/15 07:34:17;;;;;;;23.12;16.23;;;;;;;10.75;55.91;102863.52;1732730;81;21475;-51
2021/11/15 07:36:43;;;;;;;25.68;15.78;;;;;;;10.81;55.96;102868.80;1732475;81;21429;-52
2021/11/15 07:39:10;;;;;;;26.90;15.80;;;;;;;10.87;55.80;102867.56;1731172;81;20975;-51
2021/11/15 07:41:36;;;;;;;21.68;14.43;;;;;;;10.93;55.82;102866.73;1732364;81;21030;-52
2021/11/15 07:44:03;;;;;;;19.57;15.23;;;;;;;10.98;55.93;102859.44;1731608;81;21252;-53
2021/11/15 07:46:30;;;;;;;19.07;14.35;;;;;;;11.04;55.86;102866.00;1725858;81;20976;-53
2021/11/15 07:48:56;;;;;;;22.95;15.10;;;;;;;11.11;55.66;102864.30;1735061;81;21000;-52
2021/11/15 07:51:23;;;;;;;24.25;14.87;;;;;;;11.14;55.57;102869.14;1733107;81;21046;-52
2021/11/15 07:53:49;;;;;;;21.85;14.73;;;;;;;11.18;55.58;102872.22;1732301;81;20983;-52
2021/11/15 07:56:16;;;;;;;25.88;15.83;;;;;;;11.24;55.58;102880.52;1732927;82;21074;-52
2021/11/15 07:58:42;;;;;;;23.47;19.05;;;;;;;11.27;55.62;102881.41;1734078;81;20952;-54
2021/11/15 08:01:08;;;;;;;27.62;19.12;;;;;;;11.34;55.52;102879.73;1719353;81;21025;-52
2021/11/15 08:03:41;;;;;;;30.80;20.57;;;;;;;11.39;55.51;102887.17;1732379;81;21067;-52
2021/11/15 08:06:04;;;;;;;42.43;28.17;;;;;;;11.45;55.65;102887.22;1731483;82;21006;-52
2021/11/15 08:08:33;;;;;;;31.73;19.70;;;;;;;11.52;55.54;102888.16;1734055;81;21027;-50
2021/11/15 08:11:01;;;;;;;21.82;16.48;;;;;;;11.61;55.48;102896.03;1733745;81;21051;-53
2021/11/15 08:13:28;;;;;;;43.95;21.52;;;;;;;11.66;55.30;102893.05;1727488;81;21488;-52
2021/11/15 08:15:54;;;;;;;94.03;38.48;;;;;;;11.75;55.38;102900.95;1731923;81;21621;-51
2021/11/15 08:18:21;;;;;;;45.92;22.65;;;;;;;11.82;55.06;102898.84;1730656;81;21531;-50
2021/11/15 08:20:47;;;;;;;27.90;17.48;;;;;;;11.88;54.66;102894.97;1730806;81;21499;-51
2021/11/15 08:23:15;;;;;;;24.57;15.13;;;;;;;11.96;54.38;102901.99;1731585;81;21495;-51
2021/11/15 08:26:20;;;;;;;20.37;13.38;;;;;;;12.06;54.38;102906.83;1727604;81;20991;-52
2021/11/15 08:28:47;;;;;;;23.15;13.43;;;;;;;12.13;53.62;102907.31;1739194;82;20964;-52
2021/11/15 08:31:13;;;;;;;19.17;12.88;;;;;;;12.22;53.23;102916.48;1738398;81;21483;-52
2021/11/15 08:33:40;;;;;;;16.57;9.03;;;;;;;12.28;53.37;102913.94;1730879;81;21464;-52
2021/11/15 08:36:07;;;;;;;14.20;8.25;;;;;;;12.38;52.31;102915.73;1731220;81;21503;-52
2021/11/15 08:38:52;;;;;;;16.40;8.93;;;;;;;12.46;51.63;102907.50;1732609;81;21043;-53
2021/11/15 08:41:26;;;;;;;14.15;8.68;;;;;;;12.55;51.41;102914.05;1731342;81;21571;-51
2021/11/15 08:43:53;;;;;;;10.72;7.70;;;;;;;12.65;51.10;102910.60;1730928;81;21466;-51
2021/11/15 08:46:23;;;;;;;15.25;8.23;;;;;;;12.75;50.53;102908.49;1707784;84;21030;-51
2021/11/15 08:48:49;;;;;;;12.63;8.65;;;;;;;12.82;50.26;102908.05;1676092;84;21062;-51
2021/11/15 08:51:17;;;;;;;12.68;7.42;;;;;;;12.89;49.88;102915.05;1698064;83;21002;-53
2021/11/15 08:53:43;;;;;;;12.85;7.62;;;;;;;12.94;49.46;102914.19;1699766;84;21033;-53
2021/11/15 08:56:10;;;;;;;10.13;7.25;;;;;;;13.00;49.24;102910.74;1696945;83;20998;-52
2021/11/15 08:58:38;;;;;;;11.97;6.92;;;;;;;13.00;49.25;102908.98;1710405;84;21050;-52
2021/11/15 09:01:06;;;;;;;13.03;8.05;;;;;;;13.03;49.10;102909.00;1699705;84;21025;-52
2021/11/15 09:03:37;;;;;;;17.05;8.30;;;;;;;13.03;49.35;102914.23;1699044;84;20966;-53
2021/11/15 09:06:06;;;;;;;17.70;8.88;;;;;;;13.05;49.39;102911.64;1701241;84;20963;-52
2021/11/15 09:08:36;;;;;;;18.37;11.50;;;;;;;13.06;49.54;102910.33;1701344;84;21066;-52
2021/11/15 09:11:03;;;;;;;16.85;10.05;;;;;;;13.08;49.79;102908.59;1686981;83;21035;-53
2021/11/15 09:13:30;;;;;;;13.22;8.70;;;;;;;13.11;49.80;102905.58;1684764;83;21051;-52
2021/11/15 09:15:57;;;;;;;13.68;10.23;;;;;;;13.15;49.76;102902.09;1665986;84;21060;-52
2021/11/15 09:18:24;;;;;;;14.78;9.78;;;;;;;13.17;50.15;102916.89;1683281;83;21044;-52
2021/11/15 09:20:50;;;;;;;14.78;9.80;;;;;;;13.21;50.45;102921.71;1684809;83;21059;-53
2021/11/15 09:23:17;;;;;;;15.55;10.80;;;;;;;13.26;50.20;102908.19;1685156;83;20964;-51
2021/11/15 09:25:44;;;;;;;19.15;11.45;;;;;;;13.27;50.25;102914.72;1739591;80;21050;-56
2021/11/15 09:28:11;;;;;;;16.65;10.70;;;;;;;13.29;50.58;102913.44;1725817;81;21030;-50
2021/11/15 09:30:40;;;;;;;13.53;10.80;;;;;;;13.34;50.72;102901.23;1735976;81;21052;-52
2021/11/15 09:33:06;;;;;;;16.10;11.08;;;;;;;13.39;50.64;102906.04;1734858;81;20984;-52
2021/11/15 09:35:34;;;;;;;17.30;11.55;;;;;;;13.44;50.50;102910.82;1734590;81;21027;-53
2021/11/15 09:38:01;;;;;;;15.85;11.65;;;;;;;13.45;50.54;102904.73;1732810;81;21106;-53
2021/11/15 09:40:28;;;;;;;19.05;14.03;;;;;;;13.48;50.77;102902.98;1732949;81;20964;-54
2021/11/15 09:42:57;;;;;;;25.72;14.35;;;;;;;13.51;50.72;102896.89;1733637;82;21027;-53
2021/11/15 09:45:25;;;;;;;22.85;13.72;;;;;;;13.55;50.70;102891.66;1734841;81;20983;-53
2021/11/15 09:47:53;;;;;;;20.52;14.63;;;;;;;13.56;50.80;102904.31;1734748;81;20983;-55
2021/11/15 09:50:19;;;;;;;21.37;14.35;;;;;;;13.57;50.99;102896.88;1733134;81;21035;-53
2021/11/15 09:52:46;;;;;;;22.02;14.18;;;;;;;13.58;50.77;102904.72;1731740;81;21051;-53
2021/11/15 09:55:12;;;;;;;23.57;14.83;;;;;;;13.58;50.87;102907.34;1725792;81;21022;-53
2021/11/15 09:57:42;;;;;;;24.75;15.45;;;;;;;13.60;50.66;102898.20;1734884;81;21475;-53
2021/11/15 10:00:17;;;;;;;19.98;14.45;;;;;;;13.62;50.38;102898.62;1738200;81;21546;-54
2021/11/15 10:02:44;;;;;;;20.80;14.68;;;;;;;13.63;50.30;102896.88;1731507;81;21069;-53
2021/11/15 10:05:10;;;;;;;23.07;15.65;;;;;;;13.64;50.33;102893.41;1734146;81;21023;-54
2021/11/15 10:07:56;;;;;;;19.90;15.13;;;;;;;13.64;50.39;102890.33;1735190;82;21523;-53
2021/11/15 10:10:39;;;;;;;24.05;15.68;;;;;;;13.64;50.50;102895.56;1727872;81;21518;-53
2021/11/15 10:13:33;;;;;;;23.38;16.67;;;;;;;13.66;50.67;102899.52;1731642;81;21491;-50
2021/11/15 10:16:12;;;;;;;23.67;16.90;;;;;;;13.68;50.95;102895.15;1731911;81;21023;-53
2021/11/15 10:18:59;;;;;;;25.10;16.67;;;;;;;13.72;51.14;102895.58;1731172;81;21023;-53
2021/11/15 10:21:42;;;;;;;20.27;15.98;;;;;;;13.76;51.37;102896.89;1634104;86;21005;-51
2021/11/15 10:24:15;;;;;;;26.40;17.02;;;;;;;13.82;51.55;102894.70;1629048;86;21565;-52
2021/11/15 10:27:03;;;;;;;22.42;17.00;;;;;;;13.88;51.47;102898.61;1629660;86;21080;-55
2021/11/15 10:29:40;;;;;;;23.12;16.23;;;;;;;13.93;51.34;102895.99;1632809;86;21069;-53
2021/11/15 10:32:12;;;;;;;24.45;17.60;;;;;;;13.95;51.34;102887.23;1629392;86;21037;-54
2021/11/15 10:34:49;;;;;;;23.92;18.05;;;;;;;13.99;51.23;102898.17;1635864;86;21101;-54
2021/11/15 10:37:28;;;;;;;23.10;18.07;;;;;;;13.98;51.42;102893.79;1635188;86;21109;-58
2021/11/15 10:40:00;;;;;;;27.02;17.77;;;;;;;13.99;51.34;102893.36;1630927;85;21074;-53
2021/11/15 10:42:30;;;;;;;27.73;17.80;;;;;;;14.03;51.19;102895.09;1629718;85;21602;-52
2021/11/15 10:45:14;;;;;;;26.20;18.52;;;;;;;14.04;51.03;102892.47;1629705;85;21095;-53
2021/11/15 10:47:49;;;;;;;21.55;15.88;;;;;;;14.04;50.25;102897.70;1629954;85;21075;-57
2021/11/15 10:50:24;;;;;;;26.57;17.55;;;;;;;14.05;50.31;102902.08;1581908;88;21091;-53
2021/11/15 10:53:08;;;;;;;29.72;17.67;;;;;;;14.11;49.79;102903.80;1581795;88;21118;-51
2021/11/15 10:55:40;;;;;;;24.77;16.87;;;;;;;14.12;49.61;102898.55;1581575;88;21150;-53
2021/11/15 10:58:21;;;;;;;20.80;16.37;;;;;;;14.14;49.62;102894.19;1532845;92;21567;-53
2021/11/15 11:00:52;;;;;;;25.95;16.87;;;;;;;14.18;49.50;102906.39;1532958;92;21111;-53
2021/11/15 11:03:22;;;;;;;28.85;17.25;;;;;;;14.18;49.50;102906.39;1533347;92;21165;-53
2021/11/15 11:05:52;;;;;;;20.75;16.70;;;;;;;14.23;49.93;102908.58;1516277;93;21097;-54
2021/11/15 11:08:22;;;;;;;25.77;16.35;;;;;;;14.25;49.80;102905.52;1517509;94;21093;-52
2021/11/15 11:10:54;;;;;;;21.55;15.75;;;;;;;14.26;49.98;102907.23;1503949;94;21034;-53
2021/11/15 11:13:24;;;;;;;22.00;14.68;;;;;;;14.28;50.19;102901.59;1534716;93;21615;-53
2021/11/15 11:15:52;;;;;;;17.52;13.08;;;;;;;14.33;49.85;102915.98;1531021;93;21160;-55